Time;durP1;ratioP1;P1;durP2;ratioP2;P2;SDS_P1;SDS_P2;PMS_P1;PMS_P2;Temp;Humidity;BMP_temperature;BMP_pressure;BME280_temperature;BME280_humidity;BME280_pressure;Samples;Min_cycle;Max_cycle;Signal;HPM_P1;HPM_P2
2023/06/13 00:01:56;;;;;;;;;;;;;;;11.71;63.31;102456.63;5072332;28;19920;-65
2023/06/13 00:04:23;;;;;;;;;;;;;;;11.69;64.38;102453.25;5073749;28;19921;-66
2023/06/13 00:06:53;;;;;;;;;;;;;;;11.67;64.19;102452.53;5079058;28;19921;-66
2023/06/13 00:09:18;;;;;;;;;;;;;;;11.64;64.36;102450.97;5078117;28;19929;-64
2023/06/13 00:11:49;;;;;;;;;;;;;;;11.60;65.02;102444.19;5060430;28;19931;-65
2023/06/13 00:14:16;;;;;;;;;;;;;;;11.58;65.57;102446.16;5078645;28;19920;-65
2023/06/13 00:16:43;;;;;;;;;;;;;;;11.57;65.21;102443.59;5075755;28;20419;-64
2023/06/13 00:19:09;;;;;;;;;;;;;;;11.56;65.35;102448.06;5075966;28;20377;-65
2023/06/13 00:21:35;;;;;;;;;;;;;;;11.55;64.96;102440.19;5076246;28;19943;-65
2023/06/13 00:24:01;;;;;;;;;;;;;;;11.53;65.45;102432.31;5076051;28;19927;-63
2023/06/13 00:26:26;;;;;;;;;;;;;;;11.52;65.26;102440.44;5075987;28;20283;-65
2023/06/13 00:28:52;;;;;;;;;;;;;;;11.50;65.92;102443.25;5075433;28;19924;-66
2023/06/13 00:31:17;;;;;;;;;;;;;;;11.47;66.77;102436.34;5075475;28;19927;-64
2023/06/13 00:33:44;;;;;;;;;;;;;;;11.46;66.89;102448.00;5057444;28;19920;-63
2023/06/13 00:36:14;;;;;;;;;;;;;;;11.45;65.81;102435.63;5075125;28;19945;-64
2023/06/13 00:38:40;;;;;;;;;;;;;;;11.44;66.27;102433.94;5075293;28;19965;-65
2023/06/13 00:41:05;;;;;;;;;;;;;;;11.41;66.05;102434.19;5075145;28;19925;-66
2023/06/13 00:43:30;;;;;;;;;;;;;;;11.38;66.63;102437.13;5075266;28;20379;-64
2023/06/13 00:45:56;;;;;;;;;;;;;;;11.37;66.82;102429.25;5075272;28;20401;-64
2023/06/13 00:48:21;;;;;;;;;;;;;;;11.36;67.38;102427.56;5075586;28;19920;-64
2023/06/13 00:50:47;;;;;;;;;;;;;;;11.34;67.36;102422.34;5074987;28;19920;-64
2023/06/13 00:53:18;;;;;;;;;;;;;;;11.35;67.42;102424.03;5075007;28;20027;-65
2023/06/13 00:55:44;;;;;;;;;;;;;;;11.36;66.68;102435.56;5075068;28;19930;-65
2023/06/13 00:58:10;;;;;;;;;;;;;;;11.36;66.99;102435.56;5075066;28;20012;-64
2023/06/13 01:00:36;;;;;;;;;;;;;;;11.36;67.05;102435.56;5074973;28;19931;-63
2023/06/13 01:03:06;;;;;;;;;;;;;;;11.34;67.42;102427.69;5075324;28;19927;-66
2023/06/13 01:05:32;;;;;;;;;;;;;;;11.34;67.47;102433.03;5074736;28;19960;-64
2023/06/13 01:07:59;;;;;;;;;;;;;;;11.33;67.03;102434.00;5074661;28;19986;-64
2023/06/13 01:10:28;;;;;;;;;;;;;;;11.34;67.20;102430.34;5074829;28;20023;-69
2023/06/13 01:13:03;;;;;;;;;;;;;;;11.35;67.30;102437.38;5074692;28;19924;-65
2023/06/13 01:15:33;;;;;;;;;;;;;;;11.35;68.01;102432.03;5073955;28;19920;-63
2023/06/13 01:18:01;;;;;;;;;;;;;;;11.37;67.42;102426.56;5074368;28;20401;-63
2023/06/13 01:20:32;;;;;;;;;;;;;;;11.37;68.64;102429.25;5074643;28;19920;-63
2023/06/13 01:22:57;;;;;;;;;;;;;;;11.38;68.07;102439.78;5056890;28;19952;-66
2023/06/13 01:25:37;;;;;;;;;;;;;;;11.38;68.91;102429.13;5074600;28;20303;-66
2023/06/13 01:28:03;;;;;;;;;;;;;;;11.39;68.37;102438.81;5074566;28;19982;-63
2023/06/13 01:30:28;;;;;;;;;;;;;;;11.41;69.46;102428.00;5074306;28;20379;-64
2023/06/13 01:32:54;;;;;;;;;;;;;;;11.41;68.48;102434.19;5074308;28;19921;-65
2023/06/13 01:35:21;;;;;;;;;;;;;;;11.43;68.71;102436.72;5076209;28;19920;-64
2023/06/13 01:37:47;;;;;;;;;;;;;;;11.44;68.28;102431.28;5074449;28;19924;-65
2023/06/13 01:40:15;;;;;;;;;;;;;;;11.44;70.04;102439.28;5074301;28;20019;-66
2023/06/13 01:42:41;;;;;;;;;;;;;;;11.46;70.01;102431.97;5056332;28;20395;-64
2023/06/13 01:45:07;;;;;;;;;;;;;;;11.47;69.86;102433.69;5056114;28;19920;-65
2023/06/13 01:47:35;;;;;;;;;;;;;;;11.49;69.49;102431.72;5039594;28;19921;-65
2023/06/13 01:50:15;;;;;;;;;;;;;;;11.51;69.38;102428.94;5074505;28;19927;-65
2023/06/13 01:52:59;;;;;;;;;;;;;;;11.53;69.86;102432.31;5074952;28;19920;-65
2023/06/13 01:55:43;;;;;;;;;;;;;;;11.55;70.34;102429.50;5074718;28;19920;-65
2023/06/13 01:58:15;;;;;;;;;;;;;;;11.58;70.10;102431.97;5074239;28;20421;-64
2023/06/13 02:00:42;;;;;;;;;;;;;;;11.60;70.67;102428.19;5056476;28;19927;-65
2023/06/13 02:03:07;;;;;;;;;;;;;;;11.63;70.34;102437.75;5074129;28;19920;-64
2023/06/13 02:05:33;;;;;;;;;;;;;;;11.66;70.89;102429.47;5074584;28;19927;-66
2023/06/13 02:08:01;;;;;;;;;;;;;;;11.69;70.86;102437.22;5073243;28;20024;-64
2023/06/13 02:10:26;;;;;;;;;;;;;;;11.71;70.83;102432.59;5073869;28;19994;-66
2023/06/13 02:12:52;;;;;;;;;;;;;;;11.73;71.37;102433.31;5073552;28;20402;-64
2023/06/13 02:15:17;;;;;;;;;;;;;;;11.77;71.41;102429.41;5073470;28;19920;-64
2023/06/13 02:17:42;;;;;;;;;;;;;;;11.79;70.85;102435.50;5073411;28;20310;-65
2023/06/13 02:20:08;;;;;;;;;;;;;;;11.82;70.74;102437.91;5073838;28;19924;-64
2023/06/13 02:22:33;;;;;;;;;;;;;;;11.85;70.73;102431.44;5056053;28;19922;-65
2023/06/13 02:24:59;;;;;;;;;;;;;;;11.89;70.47;102425.75;5073150;28;19921;-63
2023/06/13 02:27:25;;;;;;;;;;;;;;;11.93;70.70;102426.34;5073049;28;20019;-65
2023/06/13 02:29:51;;;;;;;;;;;;;;;11.97;70.66;102436.63;5073534;28;19927;-63
2023/06/13 02:32:18;;;;;;;;;;;;;;;12.01;70.17;102427.38;5073107;28;19940;-66
2023/06/13 02:34:43;;;;;;;;;;;;;;;12.05;70.49;102431.47;5073163;28;20009;-65
2023/06/13 02:37:09;;;;;;;;;;;;;;;12.09;70.59;102435.56;5073813;28;19920;-67
2023/06/13 02:39:34;;;;;;;;;;;;;;;12.13;70.45;102430.78;5073037;28;19921;-64
2023/06/13 02:41:59;;;;;;;;;;;;;;;12.18;70.85;102438.44;5073139;28;19927;-64
2023/06/13 02:44:25;;;;;;;;;;;;;;;12.24;70.60;102443.25;5073090;28;19925;-66
2023/06/13 02:46:50;;;;;;;;;;;;;;;12.30;70.84;102448.03;5072724;28;19966;-64
2023/06/13 02:49:15;;;;;;;;;;;;;;;12.47;70.86;102444.75;5072921;28;20015;-69
2023/06/13 02:51:41;;;;;;;;;;;;;;;12.80;71.83;102443.63;5075758;28;19928;-65
2023/06/13 02:54:07;;;;;;;;;;;;;;;13.77;71.66;102441.91;5076952;28;19920;-66
2023/06/13 02:56:32;;;;;;;;;;;;;;;15.94;67.40;102447.56;5076961;28;19920;-64
2023/06/13 02:58:58;;;;;;;;;;;;;;;18.27;56.40;102446.69;5073417;28;19927;-64
2023/06/13 03:01:23;;;;;;;;;;;;;;;20.11;50.38;102446.78;5054794;28;19920;-66
2023/06/13 03:03:51;;;;;;;;;;;;;;;21.41;46.41;102446.19;5054758;28;19920;-65
2023/06/13 03:06:17;;;;;;;;;;;;;;;22.34;43.85;102437.78;5072883;28;19987;-67
2023/06/13 03:08:47;;;;;;;;;;;;;;;22.99;42.16;102435.59;5054921;28;19926;-66
2023/06/13 03:11:14;;;;;;;;;;;;;;;23.56;40.64;102442.44;5072801;28;19981;-66
2023/06/13 03:13:39;;;;;;;;;;;;;;;23.95;40.00;102438.84;5072578;28;19978;-65
2023/06/13 03:16:06;;;;;;;;;;;;;;;24.42;39.44;102442.38;5054635;28;19924;-66
2023/06/13 03:18:31;;;;;;;;;;;;;;;24.75;38.46;102448.53;5072373;28;20387;-65
2023/06/13 03:20:57;;;;;;;;;;;;;;;24.98;37.94;102453.47;5072334;28;19970;-65
2023/06/13 03:23:22;;;;;;;;;;;;;;;25.22;37.58;102457.34;5073109;28;19921;-64
2023/06/13 03:25:47;;;;;;;;;;;;;;;25.41;37.56;102448.19;5072564;28;19920;-66
2023/06/13 03:28:13;;;;;;;;;;;;;;;25.62;37.20;102449.72;5054314;28;19966;-64
2023/06/13 03:30:38;;;;;;;;;;;;;;;25.86;36.78;102445.38;5072130;28;20391;-65
2023/06/13 03:33:04;;;;;;;;;;;;;;;26.08;36.22;102443.06;5054253;28;19927;-64
2023/06/13 03:35:30;;;;;;;;;;;;;;;25.91;36.44;102440.91;5072658;28;19920;-67
2023/06/13 03:37:55;;;;;;;;;;;;;;;24.58;37.13;102436.47;5072835;28;20299;-66
2023/06/13 03:40:21;;;;;;;;;;;;;;;24.18;36.50;102436.53;5056829;28;19967;-65
2023/06/13 03:42:46;;;;;;;;;;;;;;;24.82;37.52;102443.06;5058501;28;19945;-66
2023/06/13 03:45:15;;;;;;;;;;;;;;;25.55;36.59;102438.88;5076277;28;19998;-66
2023/06/13 03:47:40;;;;;;;;;;;;;;;26.20;35.80;102431.16;5076326;28;19986;-66
2023/06/13 03:50:06;;;;;;;;;;;;;;;26.76;35.04;102430.13;5058346;28;20424;-66
2023/06/13 03:52:31;;;;;;;;;;;;;;;27.14;31.79;102426.25;5076578;28;19920;-66
2023/06/13 03:54:57;;;;;;;;;;;;;;;27.35;32.89;102424.88;5058965;28;19958;-67
2023/06/13 03:57:22;;;;;;;;;;;;;;;27.61;31.57;102426.38;5058583;28;20364;-64
2023/06/13 03:59:48;;;;;;;;;;;;;;;27.80;32.57;102425.25;5060027;28;19920;-68
2023/06/13 04:02:13;;;;;;;;;;;;;;;28.03;30.18;102424.38;5043762;28;19924;-65
2023/06/13 04:04:42;;;;;;;;;;;;;;;28.12;29.98;102422.13;5079889;28;19920;-67
2023/06/13 04:07:08;;;;;;;;;;;;;;;28.16;27.76;102426.06;5077927;28;19920;-67
2023/06/13 04:09:33;;;;;;;;;;;;;;;28.25;29.64;102427.38;5060457;28;20023;-65
2023/06/13 04:11:59;;;;;;;;;;;;;;;28.38;26.54;102418.91;5079738;28;19928;-64
2023/06/13 04:14:24;;;;;;;;;;;;;;;28.28;25.71;102421.41;5060993;28;20026;-67
2023/06/13 04:16:50;;;;;;;;;;;;;;;28.15;25.88;102411.53;5077313;28;19927;-66
2023/06/13 04:19:18;;;;;;;;;;;;;;;28.14;25.69;102414.50;5076012;28;20292;-64
2023/06/13 04:21:45;;;;;;;;;;;;;;;28.14;25.13;102411.78;5076062;28;19930;-63
2023/06/13 04:24:11;;;;;;;;;;;;;;;28.20;26.89;102405.31;5057961;28;19974;-66
2023/06/13 04:26:37;;;;;;;;;;;;;;;28.55;25.78;102403.34;5075642;28;20383;-67
2023/06/13 04:29:02;;;;;;;;;;;;;;;28.78;24.28;102409.84;5075342;28;20415;-66
2023/06/13 04:31:35;;;;;;;;;;;;;;;28.82;23.13;102408.28;5075353;28;20014;-64
2023/06/13 04:34:10;;;;;;;;;;;;;;;28.93;23.25;102410.19;5075336;28;20408;-65
2023/06/13 04:36:38;;;;;;;;;;;;;;;28.86;21.60;102404.81;5075520;28;19924;-63
2023/06/13 04:39:06;;;;;;;;;;;;;;;28.86;23.61;102404.00;5075478;28;19920;-66
2023/06/13 04:41:37;;;;;;;;;;;;;;;29.09;24.14;102403.88;5075759;28;19964;-66
2023/06/13 04:44:05;;;;;;;;;;;;;;;29.27;22.54;102403.66;5075422;28;19944;-65
2023/06/13 04:46:33;;;;;;;;;;;;;;;29.51;21.93;102398.91;5075305;28;19927;-67
2023/06/13 04:48:58;;;;;;;;;;;;;;;29.50;21.85;102393.66;5075843;28;19935;-68
2023/06/13 04:51:27;;;;;;;;;;;;;;;29.39;21.92;102397.25;5075324;28;19920;-63
2023/06/13 04:53:58;;;;;;;;;;;;;;;29.46;22.31;102395.22;5074950;28;19920;-64
2023/06/13 04:56:25;;;;;;;;;;;;;;;29.57;21.39;102388.81;5057171;28;19920;-67
2023/06/13 04:58:52;;;;;;;;;;;;;;;29.41;22.18;102393.19;5056615;28;19920;-67
2023/06/13 05:01:19;;;;;;;;;;;;;;;29.32;22.73;102393.84;5074734;28;19920;-67
2023/06/13 05:03:45;;;;;;;;;;;;;;;29.33;22.72;102390.03;5074834;28;19921;-65
2023/06/13 05:06:12;;;;;;;;;;;;;;;29.35;21.97;102382.38;5074959;28;20364;-66
2023/06/13 05:08:37;;;;;;;;;;;;;;;29.25;22.59;102383.88;5074479;28;19931;-66
2023/06/13 05:11:02;;;;;;;;;;;;;;;29.19;22.50;102387.59;5075168;28;19924;-65
2023/06/13 05:13:28;;;;;;;;;;;;;;;28.99;22.61;102392.75;5074500;28;19964;-65
2023/06/13 05:15:54;;;;;;;;;;;;;;;28.57;23.25;102384.75;5074643;28;20015;-65
2023/06/13 05:18:24;;;;;;;;;;;;;;;28.19;23.78;102381.75;5074624;28;19920;-64
2023/06/13 05:20:50;;;;;;;;;;;;;;;27.65;23.91;102370.94;5074556;28;19924;-64
2023/06/13 05:23:15;;;;;;;;;;;;;;;26.84;24.55;102372.38;5074481;28;19981;-66
2023/06/13 05:25:40;;;;;;;;;;;;;;;25.82;25.91;102376.75;5074547;28;19965;-64
2023/06/13 05:28:06;;;;;;;;;;;;;;;24.52;27.49;102377.38;5074799;28;19993;-67
2023/06/13 05:30:32;;;;;;;;;;;;;;;23.39;28.95;102371.25;5074177;28;20405;-68
2023/06/13 05:32:57;;;;;;;;;;;;;;;22.49;30.76;102370.59;5056380;28;19926;-68
2023/06/13 05:35:23;;;;;;;;;;;;;;;21.99;31.42;102368.25;5074299;28;19920;-66
2023/06/13 05:37:49;;;;;;;;;;;;;;;21.59;31.41;102367.94;5074371;28;19921;-66
2023/06/13 05:40:14;;;;;;;;;;;;;;;21.36;32.18;102370.03;5074086;28;19945;-64
2023/06/13 05:42:40;;;;;;;;;;;;;;;21.21;31.70;102365.50;5075561;28;19950;-64
2023/06/13 05:45:06;;;;;;;;;;;;;;;21.06;32.12;102366.59;5073998;28;20409;-65
2023/06/13 05:47:31;;;;;;;;;;;;;;;20.91;32.28;102359.38;5074008;28;19920;-64
2023/06/13 05:49:57;;;;;;;;;;;;;;;20.84;32.69;102368.47;5073967;28;20402;-66
2023/06/13 05:52:22;;;;;;;;;;;;;;;20.80;33.05;102364.44;5073801;28;20067;-65
2023/06/13 05:54:47;;;;;;;;;;;;;;;20.77;32.76;102367.53;5056878;28;20019;-63
2023/06/13 05:57:13;;;;;;;;;;;;;;;20.75;33.10;102359.59;5075207;28;19921;-66
2023/06/13 05:59:38;;;;;;;;;;;;;;;20.70;33.09;102360.16;5055960;28;19920;-65
2023/06/13 06:02:04;;;;;;;;;;;;;;;20.67;32.66;102352.44;5073614;28;19943;-66
2023/06/13 06:04:29;;;;;;;;;;;;;;;20.62;33.19;102357.59;5056226;28;19921;-66
2023/06/13 06:06:54;;;;;;;;;;;;;;;20.63;33.48;102351.13;5074074;28;19920;-68
2023/06/13 06:09:20;;;;;;;;;;;;;;;20.65;33.65;102353.66;5073739;28;19950;-67
2023/06/13 06:11:45;;;;;;;;;;;;;;;20.63;32.92;102350.31;5055745;28;19928;-65
2023/06/13 06:14:10;;;;;;;;;;;;;;;20.59;33.59;102349.00;5073949;28;19924;-65
2023/06/13 06:16:35;;;;;;;;;;;;;;;20.60;33.32;102343.41;5073435;28;20026;-64
2023/06/13 06:19:01;;;;;;;;;;;;;;;20.60;33.71;102348.81;5055691;28;19921;-66
2023/06/13 06:21:26;;;;;;;;;;;;;;;20.63;33.81;102345.72;5073311;28;19927;-67
2023/06/13 06:23:51;;;;;;;;;;;;;;;20.57;33.40;102346.50;5073260;28;20379;-66
2023/06/13 06:26:17;;;;;;;;;;;;;;;20.56;33.69;102344.81;5073173;28;20303;-65
2023/06/13 06:28:42;;;;;;;;;;;;;;;20.58;33.30;102337.34;5074449;28;19921;-67
2023/06/13 06:31:08;;;;;;;;;;;;;;;20.62;33.60;102344.03;5073257;28;20435;-67
2023/06/13 06:33:33;;;;;;;;;;;;;;;20.67;33.56;102338.06;5073308;28;20387;-67
2023/06/13 06:35:58;;;;;;;;;;;;;;;20.71;33.76;102337.47;5072855;28;20292;-69
2023/06/13 06:38:24;;;;;;;;;;;;;;;20.72;33.88;102333.75;5072833;28;20351;-70
2023/06/13 06:40:49;;;;;;;;;;;;;;;20.77;33.44;102335.03;5055025;28;19920;-65
2023/06/13 06:43:15;;;;;;;;;;;;;;;20.80;34.13;102335.47;5073895;28;20027;-64
2023/06/13 06:45:40;;;;;;;;;;;;;;;20.84;34.25;102330.53;5073310;28;19920;-66
2023/06/13 06:48:05;;;;;;;;;;;;;;;20.89;34.19;102336.22;5072728;28;20355;-67
2023/06/13 06:50:31;;;;;;;;;;;;;;;20.86;33.94;102325.78;5072755;28;19920;-67
2023/06/13 06:52:56;;;;;;;;;;;;;;;20.86;34.74;102333.91;5072321;28;20307;-66
2023/06/13 06:55:21;;;;;;;;;;;;;;;20.89;34.32;102322.69;5072405;28;19921;-64
2023/06/13 06:57:47;;;;;;;;;;;;;;;20.94;34.98;102331.06;5054633;28;19920;-65
2023/06/13 07:00:14;;;;;;;;;;;;;;;20.92;34.11;102325.00;5072859;28;19926;-67
2023/06/13 07:02:43;;;;;;;;;;;;;;;20.88;35.08;102331.84;5072782;28;19921;-65
2023/06/13 07:05:08;;;;;;;;;;;;;;;20.81;34.80;102331.75;5072578;28;19990;-66
2023/06/13 07:07:34;;;;;;;;;;;;;;;20.80;35.42;102329.22;5072761;28;20392;-65
2023/06/13 07:09:59;;;;;;;;;;;;;;;20.83;35.26;102328.88;5054424;28;19924;-65
2023/06/13 07:12:25;;;;;;;;;;;;;;;20.83;34.82;102323.44;5072098;28;19930;-65
2023/06/13 07:14:50;;;;;;;;;;;;;;;20.86;34.86;102323.06;5072279;28;19946;-67
2023/06/13 07:17:15;;;;;;;;;;;;;;;20.90;34.72;102329.78;5072559;28;20387;-66
2023/06/13 07:19:40;;;;;;;;;;;;;;;20.90;34.96;102329.78;5072454;28;20015;-65
2023/06/13 07:22:06;;;;;;;;;;;;;;;20.93;35.11;102313.13;5072415;28;19931;-65
2023/06/13 07:24:31;;;;;;;;;;;;;;;20.99;34.91;102318.59;5072269;28;20391;-67
2023/06/13 07:26:56;;;;;;;;;;;;;;;21.04;34.79;102321.56;5072310;28;20022;-66
2023/06/13 07:29:22;;;;;;;;;;;;;;;21.09;34.38;102318.28;5074152;28;19967;-66
2023/06/13 07:31:47;;;;;;;;;;;;;;;21.04;33.25;102316.16;5072907;28;19974;-65
2023/06/13 07:34:12;;;;;;;;;;;;;;;21.03;32.75;102319.06;5072264;28;19921;-67
2023/06/13 07:36:38;;;;;;;;;;;;;;;20.97;32.93;102328.78;5072230;28;19921;-65
2023/06/13 07:39:10;;;;;;;;;;;;;;;20.96;32.96;102329.00;5072115;28;19966;-65
2023/06/13 07:41:36;;;;;;;;;;;;;;;20.95;32.37;102321.91;5072520;28;20358;-65
2023/06/13 07:44:02;;;;;;;;;;;;;;;20.90;32.52;102316.22;5054540;28;20007;-65
2023/06/13 07:46:27;;;;;;;;;;;;;;;20.90;32.37;102316.22;5074561;28;19959;-65
2023/06/13 07:48:52;;;;;;;;;;;;;;;20.90;32.85;102313.53;5072136;28;20391;-65
2023/06/13 07:51:18;;;;;;;;;;;;;;;20.96;33.22;102310.03;5072307;28;19927;-66
2023/06/13 07:53:43;;;;;;;;;;;;;;;20.98;32.98;102316.09;5072170;28;19921;-66
2023/06/13 07:56:09;;;;;;;;;;;;;;;20.98;32.67;102305.25;5071992;28;20011;-70
2023/06/13 07:58:34;;;;;;;;;;;;;;;20.95;32.68;102302.94;5072354;28;19921;-67
2023/06/13 08:01:00;;;;;;;;;;;;;;;20.94;32.78;102295.84;5040004;28;19927;-68
2023/06/13 08:03:25;;;;;;;;;;;;;;;20.94;32.62;102298.56;5074376;28;19927;-66
2023/06/13 08:05:50;;;;;;;;;;;;;;;20.96;32.98;102301.91;5075306;28;19966;-66
2023/06/13 08:08:21;;;;;;;;;;;;;;;20.97;32.34;102301.72;5075172;28;19993;-67
2023/06/13 08:10:46;;;;;;;;;;;;;;;20.88;30.82;102289.34;5038232;28;19931;-66
2023/06/13 08:13:11;;;;;;;;;;;;;;;20.83;32.01;102299.09;5054203;28;19920;-66
2023/06/13 08:15:37;;;;;;;;;;;;;;;20.78;32.42;102301.50;5072379;28;20031;-65
2023/06/13 08:18:02;;;;;;;;;;;;;;;20.83;32.79;102307.22;5072508;28;19920;-64
2023/06/13 08:20:27;;;;;;;;;;;;;;;20.87;31.80;102292.25;5071819;28;19928;-66
2023/06/13 08:22:53;;;;;;;;;;;;;;;20.86;32.52;102296.00;5071826;28;19957;-69
2023/06/13 08:25:18;;;;;;;;;;;;;;;20.87;32.87;102298.50;5072541;28;20035;-66
2023/06/13 08:27:44;;;;;;;;;;;;;;;20.92;33.07;102297.91;5058276;28;19928;-68
2023/06/13 08:30:10;;;;;;;;;;;;;;;20.99;33.26;102296.09;5076699;28;19921;-66
2023/06/13 08:32:35;;;;;;;;;;;;;;;21.12;32.77;102290.81;5078418;28;19927;-66
2023/06/13 08:35:01;;;;;;;;;;;;;;;21.19;30.84;102286.28;5058439;28;19920;-66
2023/06/13 08:37:27;;;;;;;;;;;;;;;21.14;30.77;102287.91;5076280;28;20027;-67
2023/06/13 08:39:57;;;;;;;;;;;;;;;21.10;31.92;102282.03;5075185;28;20530;-67
2023/06/13 08:42:22;;;;;;;;;;;;;;;21.03;31.27;102286.56;5075745;28;19925;-67
2023/06/13 08:44:48;;;;;;;;;;;;;;;20.97;31.35;102285.47;5075617;28;19928;-65
2023/06/13 08:47:13;;;;;;;;;;;;;;;20.91;31.10;102290.81;5076764;28;19920;-64
2023/06/13 08:49:38;;;;;;;;;;;;;;;20.91;31.47;102293.53;5076089;28;19920;-69
2023/06/13 08:52:09;;;;;;;;;;;;;;;20.90;30.62;102286.44;5075586;28;20012;-66
2023/06/13 08:54:36;;;;;;;;;;;;;;;20.95;31.47;102284.81;5075495;28;20014;-66
2023/06/13 08:57:04;;;;;;;;;;;;;;;20.96;31.95;102283.78;5075290;28;19967;-67
2023/06/13 08:59:31;;;;;;;;;;;;;;;21.02;32.09;102285.72;5075314;28;19920;-66
2023/06/13 09:01:57;;;;;;;;;;;;;;;21.15;31.76;102284.16;5076495;28;19924;-67
2023/06/13 09:04:27;;;;;;;;;;;;;;;21.24;30.69;102283.84;5074879;28;20073;-68
2023/06/13 09:06:53;;;;;;;;;;;;;;;21.27;30.94;102282.63;5074685;28;19965;-66
2023/06/13 09:09:20;;;;;;;;;;;;;;;21.24;31.25;102277.59;5075148;28;20369;-67
2023/06/13 09:11:45;;;;;;;;;;;;;;;21.11;30.70;102272.06;5074736;28;20394;-67
2023/06/13 09:14:11;;;;;;;;;;;;;;;21.03;31.04;102264.88;5075143;28;19921;-68
2023/06/13 09:16:37;;;;;;;;;;;;;;;20.99;31.62;102266.31;5074728;28;20019;-66
2023/06/13 09:19:11;;;;;;;;;;;;;;;20.96;31.79;102264.81;5075189;28;20403;-67
2023/06/13 09:21:38;;;;;;;;;;;;;;;21.02;31.49;102268.63;5074490;28;19925;-67
2023/06/13 09:24:06;;;;;;;;;;;;;;;21.04;31.25;102259.25;5074702;28;20307;-66
2023/06/13 09:26:32;;;;;;;;;;;;;;;21.09;31.56;102263.25;5057412;28;19963;-66
2023/06/13 09:29:00;;;;;;;;;;;;;;;21.12;30.52;102260.19;5074894;28;19927;-67
2023/06/13 09:31:27;;;;;;;;;;;;;;;21.13;30.38;102249.16;5074993;28;19925;-66
2023/06/13 09:33:54;;;;;;;;;;;;;;;21.11;30.77;102245.81;5057438;28;19920;-67
2023/06/13 09:36:21;;;;;;;;;;;;;;;21.12;30.21;102244.78;5056368;28;19966;-65
2023/06/13 09:38:48;;;;;;;;;;;;;;;21.15;29.90;102244.38;5073442;28;19925;-66
2023/06/13 09:41:13;;;;;;;;;;;;;;;21.16;30.01;102240.63;5074020;28;19962;-64
2023/06/13 09:43:39;;;;;;;;;;;;;;;21.19;30.62;102237.53;5074186;28;19960;-66
2023/06/13 09:46:14;;;;;;;;;;;;;;;21.17;30.66;102236.88;5056120;28;20418;-66
2023/06/13 09:48:43;;;;;;;;;;;;;;;21.24;30.72;102237.78;5056476;28;19928;-66
2023/06/13 09:51:11;;;;;;;;;;;;;;;21.31;30.79;102233.25;5056201;28;19920;-65
2023/06/13 09:53:37;;;;;;;;;;;;;;;21.40;30.80;102228.53;5074927;28;20007;-66
2023/06/13 09:56:02;;;;;;;;;;;;;;;21.46;30.47;102226.91;5074933;28;20393;-65
2023/06/13 09:58:28;;;;;;;;;;;;;;;21.40;30.36;102220.41;5075274;28;19921;-63
2023/06/13 10:00:59;;;;;;;;;;;;;;;21.43;30.84;102222.72;5056707;28;19921;-68
2023/06/13 10:03:27;;;;;;;;;;;;;;;21.49;30.72;102215.66;5075287;28;19921;-64
2023/06/13 10:05:52;;;;;;;;;;;;;;;21.61;30.94;102211.34;5074529;28;19920;-66
2023/06/13 10:08:22;;;;;;;;;;;;;;;21.69;31.07;102211.19;5055875;28;20279;-67
2023/06/13 10:10:48;;;;;;;;;;;;;;;21.70;30.75;102206.59;5074084;28;19943;-66
2023/06/13 10:13:21;;;;;;;;;;;;;;;21.69;31.05;102197.63;5056385;28;19943;-66
2023/06/13 10:15:50;;;;;;;;;;;;;;;21.69;30.74;102200.34;5056614;28;19924;-65
2023/06/13 10:18:19;;;;;;;;;;;;;;;21.71;31.25;102189.28;5056461;28;19976;-66
2023/06/13 10:20:46;;;;;;;;;;;;;;;21.80;31.90;102191.63;5055504;28;20015;-65
2023/06/13 10:23:13;;;;;;;;;;;;;;;21.90;31.61;102185.81;5073348;28;20397;-66
2023/06/13 10:25:40;;;;;;;;;;;;;;;21.86;30.76;102179.97;5073290;28;19927;-67
2023/06/13 10:28:35;;;;;;;;;;;;;;;21.81;31.35;102184.31;5072924;28;19924;-65
2023/06/13 10:31:11;;;;;;;;;;;;;;;21.80;31.34;102177.22;4986956;28;20364;-65
2023/06/13 10:33:36;;;;;;;;;;;;;;;21.90;31.72;102170.38;5073404;28;20015;-65
2023/06/13 10:36:05;;;;;;;;;;;;;;;22.03;31.47;102171.47;5073277;28;19956;-68
2023/06/13 10:38:53;;;;;;;;;;;;;;;22.01;31.44;102171.69;5072952;28;19921;-66
2023/06/13 10:41:43;;;;;;;;;;;;;;;22.03;31.81;102169.59;5073056;28;19928;-66
2023/06/13 10:44:08;;;;;;;;;;;;;;;22.00;31.27;102161.03;5018640;28;19920;-68
2023/06/13 10:46:34;;;;;;;;;;;;;;;22.01;31.43;102154.56;5072820;28;20351;-64
2023/06/13 10:49:02;;;;;;;;;;;;;;;21.98;31.60;102160.41;5072530;28;19921;-66
2023/06/13 10:51:29;;;;;;;;;;;;;;;21.95;31.72;102150.78;5072954;28;20406;-64
2023/06/13 10:54:07;;;;;;;;;;;;;;;21.97;31.55;102143.25;5072977;28;20382;-65
2023/06/13 10:56:33;;;;;;;;;;;;;;;21.99;31.35;102138.50;5072756;28;20018;-65
2023/06/13 10:59:06;;;;;;;;;;;;;;;22.10;31.00;102142.50;5072829;28;20027;-66
2023/06/13 11:01:32;;;;;;;;;;;;;;;22.12;31.05;102135.84;5072417;28;19920;-67
2023/06/13 11:04:10;;;;;;;;;;;;;;;22.12;31.43;102140.41;5072699;28;19920;-67
2023/06/13 11:06:36;;;;;;;;;;;;;;;22.14;31.08;102138.34;5072658;28;19965;-64
2023/06/13 11:09:08;;;;;;;;;;;;;;;22.13;31.28;102137.50;5072201;28;19924;-66
2023/06/13 11:11:57;;;;;;;;;;;;;;;22.17;31.47;102127.06;5054837;28;19947;-64
2023/06/13 11:14:25;;;;;;;;;;;;;;;22.21;31.54;102129.16;5061820;28;19927;-65
2023/06/13 11:16:50;;;;;;;;;;;;;;;22.27;31.30;102126.69;5073192;28;19921;-66
2023/06/13 11:19:17;;;;;;;;;;;;;;;22.33;31.66;102121.25;5073535;28;19931;-66
2023/06/13 11:21:44;;;;;;;;;;;;;;;22.40;31.33;102115.81;5072311;28;19920;-66
2023/06/13 11:24:11;;;;;;;;;;;;;;;22.33;30.86;102121.25;5072313;28;20010;-65
2023/06/13 11:26:36;;;;;;;;;;;;;;;22.34;31.39;102112.06;5072224;28;19925;-67
2023/06/13 11:29:03;;;;;;;;;;;;;;;22.32;31.28;102107.91;5072383;28;20011;-64
2023/06/13 11:31:28;;;;;;;;;;;;;;;22.24;31.19;102107.03;5072312;28;20066;-66
2023/06/13 11:33:56;;;;;;;;;;;;;;;22.31;31.55;102103.50;5072388;28;20010;-66
2023/06/13 11:36:24;;;;;;;;;;;;;;;22.42;31.53;102103.72;5072205;28;19925;-65
2023/06/13 11:39:10;;;;;;;;;;;;;;;22.41;31.26;102095.78;5072073;28;19920;-66
2023/06/13 11:41:36;;;;;;;;;;;;;;;22.40;31.19;102092.25;5071607;28;19963;-65
2023/06/13 11:44:01;;;;;;;;;;;;;;;22.39;30.83;102087.84;5072133;28;20346;-64
2023/06/13 11:46:27;;;;;;;;;;;;;;;22.36;30.78;102088.28;5072219;28;19925;-68
2023/06/13 11:48:56;;;;;;;;;;;;;;;22.34;30.98;102084.09;5054033;28;20387;-64
2023/06/13 11:51:21;;;;;;;;;;;;;;;22.33;31.01;102083.25;5073081;28;20010;-66
2023/06/13 11:53:47;;;;;;;;;;;;;;;22.33;30.78;102080.56;5072119;28;20019;-65
2023/06/13 11:56:18;;;;;;;;;;;;;;;22.33;31.29;102077.84;5071974;28;19926;-66
2023/06/13 11:58:44;;;;;;;;;;;;;;;22.47;31.59;102075.94;5071939;28;19927;-67
2023/06/13 12:01:13;;;;;;;;;;;;;;;22.58;31.47;102079.94;5074213;28;19920;-68
2023/06/13 12:03:40;;;;;;;;;;;;;;;22.61;31.04;102074.91;5075944;28;19928;-66
2023/06/13 12:06:06;;;;;;;;;;;;;;;22.55;30.96;102076.59;5076575;28;19943;-65
2023/06/13 12:08:34;;;;;;;;;;;;;;;22.55;30.84;102073.88;5075859;28;19929;-65
2023/06/13 12:11:02;;;;;;;;;;;;;;;22.46;31.28;102069.69;5076102;28;19936;-66
2023/06/13 12:13:27;;;;;;;;;;;;;;;22.39;30.77;102066.13;5075657;28;20307;-65
2023/06/13 12:15:53;;;;;;;;;;;;;;;22.36;30.85;102065.72;5075692;28;19927;-67
2023/06/13 12:18:18;;;;;;;;;;;;;;;22.40;30.99;102065.09;5057897;28;19928;-66
2023/06/13 12:20:51;;;;;;;;;;;;;;;22.44;30.97;102055.47;5058958;28;19920;-64
2023/06/13 12:23:17;;;;;;;;;;;;;;;22.44;30.73;102058.19;5077252;28;20039;-64
2023/06/13 12:25:43;;;;;;;;;;;;;;;22.38;31.03;102053.63;5079346;28;19927;-64
2023/06/13 12:28:12;;;;;;;;;;;;;;;22.49;31.42;102054.84;5075289;28;19920;-65
2023/06/13 12:30:39;;;;;;;;;;;;;;;22.55;31.36;102054.88;5075456;28;19932;-67
2023/06/13 12:33:06;;;;;;;;;;;;;;;22.62;30.98;102054.00;5075323;28;19927;-64
2023/06/13 12:35:31;;;;;;;;;;;;;;;22.65;30.86;102053.59;5057835;28;20086;-65